createdAt,value
2019-02-12T00:01:36.909Z,101801.00
2019-02-12T00:04:04.997Z,101790.00
2019-02-12T00:06:33.103Z,101799.00
2019-02-12T00:09:17.933Z,101544.00
2019-02-12T00:12:05.542Z,101811.00
2019-02-12T00:14:45.968Z,101949.00
2019-02-12T00:17:33.589Z,101821.00
2019-02-12T00:20:13.699Z,101597.00
2019-02-12T00:23:01.186Z,101840.00
2019-02-12T00:25:29.387Z,101848.00
2019-02-12T00:28:16.808Z,101854.00
2019-02-12T00:30:57.869Z,101844.00
2019-02-12T00:33:45.321Z,101836.00
2019-02-12T00:36:26.053Z,101599.00
2019-02-12T00:39:08.051Z,101844.00
2019-02-12T00:41:36.173Z,101844.00
2019-02-12T00:44:23.803Z,101701.00
2019-02-12T00:46:51.767Z,101824.00
2019-02-12T00:49:39.245Z,101830.00
2019-02-12T00:52:26.622Z,101915.00
2019-02-12T00:55:07.195Z,101594.00
2019-02-12T00:57:54.899Z,101828.00
2019-02-12T01:00:39.520Z,101827.00
2019-02-12T01:03:07.568Z,101829.00
2019-02-12T01:05:48.245Z,101879.00
2019-02-12T01:08:35.669Z,101567.00
2019-02-12T01:11:16.297Z,101852.00
2019-02-12T01:14:03.845Z,101681.00
2019-02-12T01:16:45.119Z,101717.00
2019-02-12T01:19:33.800Z,101924.00
2019-02-12T01:22:16.067Z,101566.00
2019-02-12T01:25:04.093Z,101602.00
2019-02-12T01:30:48.760Z,101629.00
2019-02-12T01:33:17.488Z,101870.00
2019-02-12T01:36:05.166Z,101583.00
2019-02-12T01:38:46.813Z,101869.00
2019-02-12T01:41:34.608Z,101873.00
2019-02-12T01:44:15.341Z,101881.00
2019-02-12T01:50:08.440Z,101872.00
2019-02-12T01:52:36.392Z,101870.00
2019-02-12T01:55:04.470Z,101865.00
2019-02-12T01:57:32.440Z,101873.00
2019-02-12T02:00:00.450Z,101871.00
2019-02-12T02:02:29.389Z,101859.00
2019-02-12T02:05:16.830Z,101855.00
2019-02-12T02:07:45.977Z,101864.00
2019-02-12T02:10:16.565Z,101863.00
2019-02-12T02:12:45.893Z,101859.00
2019-02-12T02:15:14.452Z,101870.00
2019-02-12T02:17:42.404Z,101862.00
2019-02-12T02:20:10.990Z,101857.00
2019-02-12T02:22:39.164Z,101854.00
2019-02-12T02:25:08.648Z,101864.00
2019-02-12T02:27:36.539Z,101857.00
2019-02-12T02:30:05.831Z,101856.00
2019-02-12T02:32:33.730Z,101870.00
2019-02-12T02:35:21.210Z,101948.00
2019-02-12T02:37:49.131Z,101873.00
2019-02-12T02:40:17.133Z,101869.00
2019-02-12T02:42:45.028Z,101864.00
2019-02-12T02:45:13.092Z,101885.00
2019-02-12T02:47:41.183Z,101879.00
2019-02-12T02:50:09.135Z,101880.00
2019-02-12T02:52:37.181Z,101892.00
2019-02-12T02:55:24.945Z,101880.00
2019-02-12T02:58:05.671Z,101880.00
2019-02-12T03:00:53.342Z,101640.00
2019-02-12T03:03:33.726Z,101900.00
2019-02-12T03:09:24.959Z,101948.00
2019-02-12T03:11:52.879Z,101920.00
2019-02-12T03:14:20.817Z,101923.00
2019-02-12T03:23:07.232Z,101932.00
2019-02-12T03:28:51.857Z,101935.00
2019-02-12T03:31:19.848Z,101929.00
2019-02-12T03:40:11.174Z,101730.00
2019-02-12T03:42:40.140Z,101938.00
2019-02-12T03:45:09.407Z,101941.00
2019-02-12T03:47:37.399Z,101932.00
2019-02-12T03:56:39.482Z,101943.00
2019-02-12T03:59:07.364Z,101938.00
2019-02-12T04:04:36.612Z,101943.00
2019-02-12T04:07:17.018Z,102013.00
2019-02-12T04:09:45.025Z,101934.00
2019-02-12T04:12:12.920Z,101934.00
2019-02-12T04:14:41.920Z,101937.00
2019-02-12T04:17:09.796Z,101938.00
2019-02-12T04:26:01.339Z,101754.00
2019-02-12T04:28:48.825Z,101977.00
2019-02-12T04:31:29.297Z,101734.00
2019-02-12T04:37:06.801Z,101928.00
2019-02-12T04:39:47.907Z,101931.00
2019-02-12T04:42:35.316Z,101781.00
2019-02-12T04:52:02.446Z,101753.00
2019-02-12T04:54:30.388Z,101958.00
2019-02-12T04:57:11.873Z,101953.00
2019-02-12T04:59:59.329Z,101961.00
2019-02-12T05:02:40.196Z,101957.00
2019-02-12T05:05:28.017Z,101689.00
2019-02-12T05:08:09.071Z,101962.00
2019-02-12T05:11:00.813Z,101799.00
2019-02-12T05:13:41.843Z,101963.00
2019-02-12T05:16:29.314Z,102076.00
2019-02-12T05:18:57.315Z,101965.00
2019-02-12T05:21:25.268Z,101972.00
2019-02-12T05:24:08.391Z,101974.00
2019-02-12T05:26:55.795Z,102072.00
2019-02-12T05:29:40.156Z,102006.00
2019-02-12T05:32:27.800Z,101974.00
2019-02-12T05:38:11.753Z,101834.00
2019-02-12T05:40:59.607Z,101975.00
2019-02-12T05:43:41.689Z,101987.00
2019-02-12T05:46:29.405Z,102102.00
2019-02-12T05:49:16.306Z,102077.00
2019-02-12T05:51:56.988Z,101706.00
2019-02-12T05:54:44.408Z,101747.00
2019-02-12T05:57:25.002Z,101789.00
2019-02-12T06:00:15.562Z,101964.00
2019-02-12T06:02:56.138Z,102053.00
2019-02-12T06:05:37.407Z,101951.00
2019-02-12T06:08:18.583Z,101949.00
2019-02-12T06:10:59.335Z,101953.00
2019-02-12T06:13:39.610Z,101827.00
2019-02-12T06:16:07.717Z,101954.00
2019-02-12T06:18:48.579Z,101970.00
2019-02-12T06:21:36.933Z,102030.00
2019-02-12T06:24:17.996Z,101996.00
2019-02-12T06:27:05.936Z,101980.00
2019-02-12T06:29:46.476Z,101764.00
2019-02-12T06:32:33.925Z,101801.00
2019-02-12T06:35:14.585Z,101846.00
2019-02-12T06:38:02.421Z,101777.00
2019-02-12T06:40:43.430Z,101739.00
2019-02-12T06:43:31.242Z,102003.00
2019-02-12T06:46:11.630Z,102009.00
2019-02-12T06:48:52.171Z,101755.00
2019-02-12T06:51:33.916Z,101811.00
2019-02-12T06:54:21.445Z,101702.00
2019-02-12T06:57:01.546Z,101768.00
2019-02-12T06:59:29.543Z,102021.00
2019-02-12T07:02:54.714Z,102022.00
2019-02-12T07:05:22.753Z,102029.00
2019-02-12T07:08:30.495Z,102007.00
2019-02-12T07:11:16.559Z,102083.00
2019-02-12T07:14:06.656Z,101685.00
2019-02-12T07:17:33.317Z,101941.00
2019-02-12T07:20:23.762Z,102050.00
2019-02-12T07:23:50.414Z,102048.00
2019-02-12T07:26:50.596Z,102089.00
2019-02-12T07:30:02.976Z,101814.00
2019-02-12T07:33:44.892Z,102061.00
2019-02-12T07:36:45.395Z,102076.00
2019-02-12T07:39:44.933Z,102073.00
2019-02-12T07:43:11.578Z,102080.00
2019-02-12T07:46:11.817Z,102083.00
2019-02-12T07:49:38.299Z,101835.00
2019-02-12T07:52:46.258Z,102097.00
2019-02-12T07:56:12.637Z,101824.00
2019-02-12T07:59:13.510Z,101812.00
2019-02-12T08:02:40.111Z,102117.00
2019-02-12T08:05:40.512Z,102120.00
2019-02-12T08:09:05.272Z,102119.00
2019-02-12T08:12:06.864Z,101871.00
2019-02-12T08:14:50.778Z,101836.00
2019-02-12T08:17:52.565Z,102144.00
2019-02-12T08:21:05.209Z,102141.00
2019-02-12T08:27:55.056Z,102135.00
2019-02-12T08:30:50.609Z,102145.00
2019-02-12T08:40:55.284Z,101918.00
2019-02-12T08:43:44.549Z,102133.00
2019-02-12T08:47:10.897Z,102011.00
2019-02-12T08:50:29.080Z,102141.00
2019-02-12T08:53:50.305Z,101873.00
2019-02-12T09:00:34.437Z,102157.00
2019-02-12T09:03:34.687Z,102025.00
2019-02-12T09:06:46.455Z,102149.00
2019-02-12T09:10:13.115Z,102153.00
2019-02-12T09:13:39.684Z,102159.00
2019-02-12T09:16:39.245Z,102154.00
2019-02-12T09:19:26.100Z,102162.00
2019-02-12T09:22:55.728Z,102159.00
2019-02-12T09:26:44.732Z,102153.00
2019-02-12T09:29:55.801Z,101981.00
2019-02-12T09:32:58.919Z,102156.00
2019-02-12T09:35:58.023Z,102236.00
2019-02-12T09:38:58.865Z,102156.00
2019-02-12T09:42:29.032Z,101889.00
2019-02-12T09:45:18.970Z,102168.00
2019-02-12T09:48:49.156Z,102178.00
2019-02-12T09:52:06.412Z,102168.00
2019-02-12T09:55:10.658Z,102185.00
2019-02-12T09:58:20.769Z,102011.00
2019-02-12T10:01:10.038Z,102062.00
2019-02-12T10:04:10.690Z,102194.00
2019-02-12T10:07:20.421Z,102184.00
2019-02-12T10:10:24.538Z,102184.00
2019-02-12T10:13:33.281Z,102183.00
2019-02-12T10:16:51.996Z,102192.00
2019-02-12T10:20:03.617Z,102286.00
2019-02-12T10:23:16.998Z,102205.00
2019-02-12T10:26:11.810Z,102209.00
2019-02-12T10:29:40.971Z,102208.00
2019-02-12T10:32:08.969Z,102213.00
2019-02-12T10:34:50.689Z,102013.00
2019-02-12T10:37:18.818Z,102222.00
2019-02-12T10:39:46.870Z,102223.00
2019-02-12T10:42:34.578Z,102228.00
2019-02-12T10:45:22.411Z,102232.00
2019-02-12T10:47:50.391Z,101982.00
2019-02-12T10:50:18.442Z,102249.00
2019-02-12T10:52:46.575Z,102245.00
2019-02-12T10:55:34.990Z,102244.00
2019-02-12T10:58:03.183Z,102241.00
2019-02-12T11:00:31.277Z,102239.00
2019-02-12T11:02:59.213Z,102240.00
2019-02-12T11:05:27.192Z,102240.00
2019-02-12T11:07:55.281Z,102234.00
2019-02-12T11:10:38.010Z,102243.00
2019-02-12T11:13:06.115Z,102247.00
2019-02-12T11:15:34.130Z,102248.00
2019-02-12T11:18:02.085Z,102246.00
2019-02-12T11:20:30.899Z,102241.00
2019-02-12T11:22:59.215Z,102242.00
2019-02-12T11:25:27.166Z,102246.00
2019-02-12T11:27:55.211Z,102243.00
2019-02-12T11:30:23.173Z,102258.00
2019-02-12T11:33:12.532Z,102021.00
2019-02-12T11:35:53.292Z,102301.00
2019-02-12T11:38:21.271Z,102251.00
2019-02-12T11:40:49.460Z,102255.00
2019-02-12T11:43:17.465Z,102253.00
2019-02-12T11:45:45.529Z,102253.00
2019-02-12T11:48:13.591Z,102247.00
2019-02-12T11:50:42.575Z,102258.00
2019-02-12T11:53:28.080Z,102219.00
2019-02-12T11:56:09.298Z,102249.00
2019-02-12T11:58:37.322Z,102239.00
2019-02-12T12:01:08.155Z,102240.00
2019-02-12T12:03:36.207Z,102235.00
2019-02-12T12:06:04.268Z,102240.00
2019-02-12T12:08:32.221Z,102231.00
2019-02-12T12:11:00.204Z,102235.00
2019-02-12T12:13:28.199Z,102227.00
2019-02-12T12:41:12.153Z,102229.00
2019-02-12T12:44:04.692Z,101997.00
2019-02-12T12:46:46.818Z,102228.00
2019-02-12T12:49:28.588Z,102314.00
2019-02-12T12:51:56.838Z,102229.00
2019-02-12T12:54:25.138Z,102220.00
2019-02-12T12:57:13.279Z,102283.00
2019-02-12T13:09:25.642Z,102289.00
2019-02-12T13:17:52.058Z,102240.00
2019-02-12T13:20:20.071Z,102240.00
2019-02-12T13:22:48.175Z,102242.00
2019-02-12T13:25:16.220Z,102246.00
2019-02-12T13:27:44.161Z,102234.00
2019-02-12T13:30:14.659Z,102239.00
2019-02-12T13:38:49.212Z,102245.00
2019-02-12T13:41:36.693Z,102043.00
2019-02-12T13:44:17.838Z,102111.00
2019-02-12T13:56:07.027Z,102237.00
2019-02-12T13:58:35.151Z,102239.00
2019-02-12T14:01:16.303Z,102245.00
2019-02-12T14:04:03.977Z,101963.00
2019-02-12T14:06:31.915Z,102241.00
2019-02-12T14:08:59.904Z,102244.00
2019-02-12T14:11:27.874Z,102237.00
2019-02-12T14:14:16.507Z,102219.00
2019-02-12T14:17:03.997Z,102244.00
2019-02-12T14:19:44.989Z,101990.00
2019-02-12T14:22:32.942Z,102251.00
2019-02-12T14:25:15.446Z,102255.00
2019-02-12T14:28:05.056Z,102278.00
2019-02-12T14:30:45.973Z,102258.00
2019-02-12T14:33:33.535Z,102002.00
2019-02-12T14:36:14.404Z,102244.00
2019-02-12T14:38:42.843Z,102253.00
2019-02-12T14:41:10.965Z,102239.00
2019-02-12T14:43:38.966Z,102248.00
2019-02-12T14:46:20.227Z,102223.00
2019-02-12T14:48:48.219Z,102253.00
2019-02-12T14:51:29.362Z,102294.00
2019-02-12T14:54:16.961Z,102242.00
2019-02-12T14:56:45.050Z,102249.00
2019-02-12T14:59:33.114Z,101998.00
2019-02-12T15:02:14.121Z,102259.00
2019-02-12T15:05:01.765Z,102358.00
2019-02-12T15:07:42.384Z,101985.00
2019-02-12T15:10:23.263Z,102269.00
2019-02-12T15:13:03.821Z,102005.00
2019-02-12T15:15:51.523Z,102037.00
2019-02-12T15:18:31.643Z,102035.00
2019-02-12T15:21:19.115Z,102014.00
2019-02-12T15:23:47.392Z,102278.00
2019-02-12T15:26:34.837Z,102402.00
2019-02-12T15:29:02.781Z,102263.00
2019-02-12T15:31:30.832Z,102273.00
2019-02-12T15:33:58.979Z,102269.00
2019-02-12T15:36:28.057Z,102267.00
2019-02-12T15:38:59.336Z,102265.00
2019-02-12T15:41:47.343Z,102309.00
2019-02-12T15:44:28.220Z,102335.00
2019-02-12T15:47:11.380Z,102336.00
2019-02-12T15:49:39.479Z,102272.00
2019-02-12T15:52:20.504Z,101945.00
2019-02-12T15:55:09.571Z,101918.00
2019-02-12T15:57:50.462Z,102065.00
2019-02-12T16:00:39.487Z,102259.00
2019-02-12T16:03:27.146Z,102264.00
2019-02-12T16:05:57.183Z,102269.00
2019-02-12T16:08:45.054Z,102287.00
2019-02-12T16:11:34.613Z,102400.00
2019-02-12T16:14:16.499Z,102399.00
2019-02-12T16:17:05.524Z,102292.00
2019-02-12T16:19:47.019Z,102025.00
2019-02-12T16:22:36.185Z,102062.00
2019-02-12T16:25:04.692Z,102305.00
2019-02-12T16:27:52.588Z,102326.00
2019-02-12T16:30:34.289Z,102307.00
2019-02-12T16:33:02.390Z,102319.00
2019-02-12T16:38:18.514Z,102318.00
2019-02-12T16:40:47.595Z,102318.00
2019-02-12T16:43:16.586Z,102316.00
2019-02-12T16:45:55.191Z,102315.00
2019-02-12T16:48:37.495Z,102317.00
2019-02-12T16:51:05.637Z,102314.00
2019-02-12T16:53:48.296Z,102398.00
2019-02-12T16:56:39.088Z,102303.00
2019-02-12T16:59:19.999Z,102303.00
2019-02-12T17:05:10.153Z,102368.00
2019-02-12T17:07:52.075Z,102217.00
2019-02-12T17:10:32.419Z,102329.00
2019-02-12T17:13:13.319Z,102407.00
2019-02-12T17:15:41.362Z,102336.00
2019-02-12T17:18:22.486Z,102163.00
2019-02-12T17:21:11.461Z,102141.00
2019-02-12T17:23:54.652Z,102463.00
2019-02-12T17:26:44.571Z,102122.00
2019-02-12T17:29:25.874Z,102121.00
2019-02-12T17:31:57.076Z,102348.00
2019-02-12T17:34:29.396Z,102343.00
2019-02-12T17:40:08.579Z,102352.00
2019-02-12T17:42:37.086Z,102347.00
2019-02-12T17:45:07.208Z,102355.00
2019-02-12T17:47:35.547Z,102359.00
2019-02-12T17:50:16.585Z,102362.00
2019-02-12T17:53:04.542Z,102370.00
2019-02-12T17:55:32.664Z,102365.00
2019-02-12T17:58:20.561Z,102366.00
2019-02-12T18:00:49.239Z,102374.00
2019-02-12T18:03:37.691Z,102376.00
2019-02-12T18:06:06.288Z,102367.00
2019-02-12T18:08:48.144Z,102387.00
2019-02-12T18:11:35.474Z,102378.00
2019-02-12T18:14:15.831Z,102385.00
2019-02-12T18:17:03.816Z,102375.00
2019-02-12T18:19:45.367Z,102381.00
2019-02-12T18:22:33.695Z,102385.00
2019-02-12T18:25:02.064Z,102384.00
2019-02-12T18:27:49.935Z,102249.00
2019-02-12T18:30:30.430Z,102479.00
2019-02-12T18:33:18.059Z,102387.00
2019-02-12T18:35:59.533Z,102386.00
2019-02-12T18:38:47.164Z,102429.00
2019-02-12T18:41:29.244Z,102191.00
2019-02-12T18:44:16.840Z,102349.00
2019-02-12T18:47:01.941Z,102389.00
2019-02-12T18:49:47.218Z,102391.00
2019-02-12T18:52:15.636Z,102398.00
2019-02-12T18:54:57.106Z,102398.00
2019-02-12T18:57:44.893Z,102397.00
2019-02-12T19:00:28.347Z,102390.00
2019-02-12T19:03:16.172Z,102392.00
2019-02-12T19:05:58.196Z,102395.00
2019-02-12T19:08:46.207Z,102156.00
2019-02-12T19:11:33.827Z,102175.00
2019-02-12T19:14:14.836Z,102164.00
2019-02-12T19:17:00.730Z,102408.00
2019-02-12T19:19:29.531Z,102405.00
2019-02-12T19:22:17.677Z,102401.00
2019-02-12T19:25:06.904Z,102439.00
2019-02-12T19:27:35.317Z,102397.00
2019-02-12T19:30:22.947Z,102223.00
2019-02-12T19:33:03.992Z,102464.00
2019-02-12T19:35:51.723Z,102459.00
2019-02-12T19:38:33.628Z,102425.00
2019-02-12T19:41:21.473Z,102387.00
2019-02-12T19:44:01.984Z,102440.00
2019-02-12T19:46:49.875Z,102485.00
2019-02-12T19:49:18.101Z,102404.00
2019-02-12T19:51:46.147Z,102408.00
2019-02-12T19:54:14.331Z,102398.00
2019-02-12T19:56:43.022Z,102412.00
2019-02-12T19:59:11.091Z,102406.00
2019-02-12T20:01:39.203Z,102416.00
2019-02-12T20:04:07.347Z,102406.00
2019-02-12T20:06:35.484Z,102408.00
2019-02-12T20:09:20.380Z,102210.00
2019-02-12T20:12:08.123Z,102422.00
2019-02-12T20:14:37.915Z,102407.00
2019-02-12T20:17:07.272Z,102410.00
2019-02-12T20:19:35.328Z,102403.00
2019-02-12T20:22:03.599Z,102400.00
2019-02-12T20:24:52.598Z,102387.00
2019-02-12T20:27:20.934Z,102409.00
2019-02-12T20:29:49.641Z,102415.00
2019-02-12T20:32:32.115Z,102419.00
2019-02-12T20:35:19.881Z,102415.00
2019-02-12T20:40:50.181Z,102406.00
2019-02-12T20:43:37.843Z,102421.00
2019-02-12T20:46:06.238Z,102429.00
2019-02-12T20:48:34.468Z,102428.00
2019-02-12T20:51:15.945Z,102169.00
2019-02-12T20:54:03.675Z,102484.00
2019-02-12T20:56:31.820Z,102422.00
2019-02-12T20:59:00.065Z,102432.00
2019-02-12T21:01:28.403Z,102418.00
2019-02-12T21:03:56.452Z,102400.00
2019-02-12T21:06:37.918Z,102172.00
2019-02-12T21:09:19.070Z,102292.00
2019-02-12T21:11:47.268Z,102429.00
2019-02-12T21:14:34.908Z,102431.00
2019-02-12T21:17:03.058Z,102441.00
2019-02-12T21:19:31.231Z,102440.00
2019-02-12T21:21:59.596Z,102447.00
2019-02-12T21:24:47.339Z,102441.00
2019-02-12T21:27:22.947Z,102438.00
2019-02-12T21:29:52.491Z,102436.00
2019-02-12T21:32:20.879Z,102434.00
2019-02-12T21:35:09.219Z,102454.00
2019-02-12T21:37:53.804Z,102470.00
2019-02-12T21:40:42.914Z,102201.00
2019-02-12T21:43:25.932Z,102182.00
2019-02-12T21:46:13.613Z,102222.00
2019-02-12T21:48:42.365Z,102429.00
2019-02-12T21:51:22.869Z,102437.00
2019-02-12T21:53:51.224Z,102441.00
2019-02-12T21:56:19.602Z,102442.00
2019-02-12T21:58:47.882Z,102442.00
2019-02-12T22:01:17.239Z,102441.00
2019-02-12T22:04:05.422Z,102439.00
2019-02-12T22:06:47.137Z,102195.00
2019-02-12T22:09:28.273Z,102537.00
2019-02-12T22:12:12.035Z,102520.00
2019-02-12T22:14:59.953Z,102407.00
2019-02-12T22:17:40.798Z,102435.00
2019-02-12T22:20:29.505Z,102442.00
2019-02-12T22:23:09.829Z,102453.00
2019-02-12T22:25:50.397Z,102450.00
2019-02-12T22:28:18.563Z,102443.00
2019-02-12T22:30:46.672Z,102458.00
2019-02-12T22:33:14.970Z,102461.00
2019-02-12T22:35:43.107Z,102460.00
2019-02-12T22:38:11.179Z,102456.00
2019-02-12T22:40:39.274Z,102449.00
2019-02-12T22:43:07.414Z,102450.00
2019-02-12T22:45:35.464Z,102447.00
2019-02-12T22:48:23.231Z,102217.00
2019-02-12T22:51:03.335Z,102128.00
2019-02-12T22:53:51.021Z,102448.00
2019-02-12T22:56:31.991Z,102151.00
2019-02-12T22:59:12.052Z,102126.00
2019-02-12T23:01:59.772Z,102503.00
2019-02-12T23:04:40.635Z,102453.00
2019-02-12T23:07:28.414Z,102248.00
2019-02-12T23:10:12.288Z,102453.00
2019-02-12T23:12:52.867Z,102462.00
2019-02-12T23:15:40.477Z,102478.00
2019-02-12T23:18:21.620Z,102465.00
2019-02-12T23:21:09.055Z,102467.00
2019-02-12T23:23:49.468Z,102460.00
2019-02-12T23:26:17.780Z,102462.00
2019-02-12T23:28:59.363Z,102455.00
2019-02-12T23:31:46.790Z,102229.00
2019-02-12T23:34:30.926Z,102209.00
2019-02-12T23:37:18.487Z,102484.00
2019-02-12T23:40:00.222Z,102456.00
2019-02-12T23:42:41.342Z,102606.00
2019-02-12T23:45:28.958Z,102459.00
2019-02-12T23:48:09.253Z,102457.00
2019-02-12T23:50:56.639Z,102471.00
2019-02-12T23:53:37.415Z,102463.00
2019-02-12T23:56:24.919Z,102460.00
2019-02-12T23:59:05.474Z,102470.00
